Time;durP1;ratioP1;P1;durP2;ratioP2;P2;SDS_P1;SDS_P2;PMS_P1;PMS_P2;Temp;Humidity;BMP_temperature;BMP_pressure;BME280_temperature;BME280_humidity;BME280_pressure;Samples;Min_cycle;Max_cycle;Signal;HPM_P1;HPM_P2
2021/01/16 00:00:57;;;;;;;16.47;11.57;;;7.50;53.20;;;;;;5047833;28;20568;-41
2021/01/16 00:03:23;;;;;;;16.10;11.40;;;7.40;53.40;;;;;;5044252;28;20439;-41
2021/01/16 00:05:50;;;;;;;13.90;9.63;;;7.40;53.40;;;;;;5050830;28;20723;-41
2021/01/16 00:08:18;;;;;;;20.00;13.57;;;7.40;53.40;;;;;;5048690;28;20203;-41
2021/01/16 00:10:51;;;;;;;13.33;10.17;;;7.40;53.40;;;;;;5056632;28;20445;-41
2021/01/16 00:13:19;;;;;;;13.77;10.73;;;7.40;53.70;;;;;;5048954;28;20785;-42
2021/01/16 00:15:45;;;;;;;15.47;10.90;;;7.40;53.50;;;;;;5060071;28;20940;-41
2021/01/16 00:18:13;;;;;;;13.40;11.07;;;7.40;53.60;;;;;;5050015;28;20558;-41
2021/01/16 00:20:42;;;;;;;18.13;11.77;;;7.40;53.60;;;;;;5044892;28;20474;-42
2021/01/16 00:23:08;;;;;;;14.67;11.03;;;7.40;53.50;;;;;;5047032;28;20895;-41
2021/01/16 00:25:35;;;;;;;16.30;11.20;;;7.30;53.60;;;;;;5056905;28;20481;-41
2021/01/16 00:28:01;;;;;;;17.03;13.30;;;7.30;53.80;;;;;;5049654;28;20450;-41
2021/01/16 00:30:31;;;;;;;16.07;11.10;;;7.40;53.70;;;;;;5046698;28;20439;-41
2021/01/16 00:32:58;;;;;;;15.57;11.87;;;7.30;54.00;;;;;;5040923;28;20456;-41
2021/01/16 00:35:27;;;;;;;16.23;11.07;;;7.40;53.60;;;;;;5046003;28;20441;-41
2021/01/16 00:37:52;;;;;;;14.27;10.90;;;7.40;53.50;;;;;;5047485;28;20487;-42
2021/01/16 00:40:20;;;;;;;13.50;10.57;;;7.40;53.50;;;;;;5049614;28;20485;-41
2021/01/16 00:42:48;;;;;;;18.90;12.23;;;7.40;53.40;;;;;;5047968;28;20450;-41
2021/01/16 00:45:15;;;;;;;14.67;11.00;;;7.40;53.50;;;;;;5047167;28;20509;-41
2021/01/16 00:47:45;;;;;;;19.80;11.70;;;7.40;53.40;;;;;;5063413;28;20930;-42
2021/01/16 00:50:12;;;;;;;18.47;13.27;;;7.40;53.50;;;;;;5052668;28;20479;-42
2021/01/16 00:52:38;;;;;;;17.90;12.70;;;7.40;53.40;;;;;;5055608;28;20450;-42
2021/01/16 00:55:05;;;;;;;15.93;10.90;;;7.40;53.50;;;;;;5057634;28;20451;-41
2021/01/16 00:57:31;;;;;;;15.80;11.70;;;7.40;53.50;;;;;;5057436;28;20966;-41
2021/01/16 00:59:57;;;;;;;15.80;11.27;;;7.50;53.30;;;;;;5056508;28;20443;-41
2021/01/16 01:02:23;;;;;;;19.33;11.40;;;7.40;53.20;;;;;;5049612;28;20438;-41
2021/01/16 01:04:49;;;;;;;15.23;11.40;;;7.50;53.20;;;;;;5053818;28;20231;-41
2021/01/16 01:07:15;;;;;;;18.53;11.50;;;7.40;53.00;;;;;;5062024;28;20467;-41
2021/01/16 01:09:41;;;;;;;17.83;11.50;;;7.40;53.10;;;;;;5067027;28;20485;-41
2021/01/16 01:12:08;;;;;;;17.07;11.00;;;7.40;53.20;;;;;;5054475;28;20193;-41
2021/01/16 01:14:35;;;;;;;17.87;11.80;;;7.40;53.10;;;;;;5047971;28;20515;-41
2021/01/16 01:17:00;;;;;;;17.93;11.03;;;7.40;53.00;;;;;;5053348;28;20834;-41
2021/01/16 01:19:26;;;;;;;15.20;10.20;;;7.40;53.00;;;;;;5052654;28;20473;-41
2021/01/16 01:21:52;;;;;;;15.23;10.77;;;7.40;52.90;;;;;;5049437;28;20185;-41
2021/01/16 01:24:18;;;;;;;18.03;12.30;;;7.40;53.00;;;;;;5049706;28;20224;-41
2021/01/16 01:26:43;;;;;;;14.13;10.10;;;7.40;53.10;;;;;;5052646;28;20439;-41
2021/01/16 01:29:09;;;;;;;16.33;11.70;;;7.40;53.00;;;;;;5060466;28;20197;-41
2021/01/16 01:31:36;;;;;;;15.30;10.80;;;7.40;53.00;;;;;;5048243;28;20215;-41
2021/01/16 01:34:03;;;;;;;13.27;10.13;;;7.40;53.00;;;;;;5047321;28;20585;-41
2021/01/16 01:36:29;;;;;;;14.80;10.70;;;7.30;53.00;;;;;;5050833;28;20486;-41
2021/01/16 01:38:54;;;;;;;16.40;11.97;;;7.40;53.20;;;;;;5053340;28;20471;-41
2021/01/16 01:41:20;;;;;;;15.90;10.73;;;7.30;53.30;;;;;;5052131;28;20220;-41
2021/01/16 01:43:47;;;;;;;15.30;10.93;;;7.40;53.30;;;;;;5060638;28;20534;-41
2021/01/16 01:46:12;;;;;;;14.63;11.17;;;7.30;53.10;;;;;;5054645;28;20261;-41
2021/01/16 01:48:38;;;;;;;18.40;11.10;;;7.30;53.10;;;;;;5064102;28;20543;-41
2021/01/16 01:51:04;;;;;;;13.57;10.37;;;7.40;53.20;;;;;;5048583;28;20534;-41
2021/01/16 01:53:30;;;;;;;16.50;11.90;;;7.40;53.10;;;;;;5052447;28;20648;-41
2021/01/16 01:55:58;;;;;;;16.40;11.37;;;7.40;53.00;;;;;;5049638;28;20267;-42
2021/01/16 01:58:25;;;;;;;14.90;10.43;;;7.40;53.00;;;;;;5043572;28;20446;-41
2021/01/16 02:00:54;;;;;;;15.93;11.63;;;7.40;52.90;;;;;;5054846;28;20437;-41
2021/01/16 02:03:23;;;;;;;16.07;11.17;;;7.40;53.00;;;;;;5043971;28;20466;-41
2021/01/16 02:05:56;;;;;;;17.17;11.23;;;7.40;53.00;;;;;;5059930;28;20485;-41
2021/01/16 02:08:22;;;;;;;13.70;10.90;;;7.40;53.00;;;;;;5052844;28;20451;-41
2021/01/16 02:10:48;;;;;;;15.37;10.77;;;7.40;53.10;;;;;;5060276;28;21315;-41
2021/01/16 02:13:14;;;;;;;18.13;11.50;;;7.40;53.00;;;;;;5043849;28;20465;-41
2021/01/16 02:15:46;;;;;;;16.70;10.93;;;7.40;53.00;;;;;;5061556;28;20184;-41
2021/01/16 02:18:38;;;;;;;15.50;10.83;;;7.40;53.10;;;;;;5051041;28;20467;-41
2021/01/16 02:21:06;;;;;;;16.67;11.07;;;7.40;53.10;;;;;;5054911;28;20462;-43
2021/01/16 02:23:37;;;;;;;15.93;12.33;;;7.40;53.20;;;;;;5053501;28;20882;-41
2021/01/16 02:26:17;;;;;;;18.23;12.60;;;7.30;53.10;;;;;;5047870;28;20486;-41
2021/01/16 02:29:01;;;;;;;17.40;11.80;;;7.40;53.10;;;;;;5056435;28;20493;-41
2021/01/16 02:31:32;;;;;;;14.97;10.90;;;7.30;53.10;;;;;;5050077;28;20462;-41
2021/01/16 02:34:00;;;;;;;20.03;12.07;;;7.30;53.10;;;;;;5049955;28;20439;-41
2021/01/16 02:36:46;;;;;;;18.40;12.40;;;7.40;53.00;;;;;;5063724;28;20450;-42
2021/01/16 02:39:36;;;;;;;17.87;11.53;;;7.40;53.00;;;;;;5046544;28;20878;-41
2021/01/16 02:42:38;;;;;;;17.83;11.10;;;7.50;52.80;;;;;;5045260;28;20565;-41
2021/01/16 02:45:06;;;;;;;15.47;11.43;;;7.40;52.80;;;;;;5011585;28;20520;-41
2021/01/16 02:47:36;;;;;;;17.03;12.20;;;7.50;52.80;;;;;;5052547;28;20481;-41
2021/01/16 02:50:06;;;;;;;15.63;11.53;;;7.50;52.70;;;;;;5048790;28;20841;-41
2021/01/16 02:52:39;;;;;;;17.23;12.07;;;7.50;52.70;;;;;;5049242;28;20962;-41
2021/01/16 02:55:06;;;;;;;14.97;10.80;;;7.50;52.80;;;;;;5051002;28;20466;-41
2021/01/16 02:57:32;;;;;;;16.40;12.20;;;7.40;52.80;;;;;;5044477;28;20443;-41
2021/01/16 02:59:57;;;;;;;17.60;11.77;;;7.50;52.90;;;;;;5046465;28;20446;-41
2021/01/16 03:02:23;;;;;;;14.80;11.33;;;7.50;52.70;;;;;;5053912;28;20295;-41
2021/01/16 03:04:49;;;;;;;18.50;11.40;;;7.50;52.50;;;;;;5062314;28;20234;-41
2021/01/16 03:07:18;;;;;;;20.07;12.30;;;7.50;52.70;;;;;;5069382;28;20279;-41
2021/01/16 03:09:44;;;;;;;18.23;12.50;;;7.50;52.70;;;;;;5043818;28;20279;-42
2021/01/16 03:12:11;;;;;;;20.40;12.00;;;7.50;52.70;;;;;;5049923;28;20538;-41
2021/01/16 03:14:57;;;;;;;17.80;12.90;;;7.50;52.80;;;;;;5045015;28;20192;-41
2021/01/16 03:17:42;;;;;;;19.90;12.73;;;7.40;52.80;;;;;;5053760;28;20459;-41
2021/01/16 03:20:08;;;;;;;20.93;12.90;;;7.40;53.00;;;;;;5047659;28;20522;-42
2021/01/16 03:22:34;;;;;;;19.70;11.80;;;7.40;52.90;;;;;;5053718;28;21427;-41
2021/01/16 03:24:59;;;;;;;16.67;12.70;;;7.50;52.90;;;;;;5057001;28;20482;-41
2021/01/16 03:27:26;;;;;;;16.17;11.37;;;7.40;52.90;;;;;;5047917;28;20254;-41
2021/01/16 03:29:52;;;;;;;18.90;12.80;;;7.40;53.00;;;;;;5053104;28;20224;-41
2021/01/16 03:32:19;;;;;;;19.07;11.87;;;7.40;53.00;;;;;;5049285;28;20431;-41
2021/01/16 03:34:46;;;;;;;18.10;12.20;;;7.40;52.90;;;;;;5048115;28;20834;-41
2021/01/16 03:37:13;;;;;;;19.60;13.07;;;7.40;53.00;;;;;;5045091;28;20442;-41
2021/01/16 03:39:39;;;;;;;19.67;13.03;;;7.40;53.00;;;;;;5047978;28;21610;-41
2021/01/16 03:42:06;;;;;;;18.77;12.77;;;7.40;53.00;;;;;;5045673;28;20536;-41
2021/01/16 03:44:32;;;;;;;20.80;13.23;;;7.40;52.90;;;;;;5048377;28;20470;-41
2021/01/16 03:46:57;;;;;;;16.90;12.30;;;7.40;52.90;;;;;;5058423;28;20433;-41
2021/01/16 03:49:23;;;;;;;19.53;13.33;;;7.40;52.90;;;;;;5048644;28;20200;-41
2021/01/16 03:51:49;;;;;;;23.63;14.57;;;7.40;53.00;;;;;;5047825;28;20555;-41
2021/01/16 03:54:15;;;;;;;16.73;12.60;;;7.40;53.10;;;;;;5050611;28;20269;-41
2021/01/16 03:56:40;;;;;;;19.43;13.37;;;7.30;53.30;;;;;;5043893;28;20439;-41
2021/01/16 03:59:06;;;;;;;21.10;12.83;;;7.30;53.30;;;;;;5053564;28;20210;-41
2021/01/16 04:01:33;;;;;;;18.27;12.87;;;7.40;53.20;;;;;;5047759;28;20216;-41
2021/01/16 04:04:03;;;;;;;17.50;13.20;;;7.40;53.30;;;;;;5049228;28;20247;-41
2021/01/16 04:06:29;;;;;;;18.83;12.67;;;7.40;53.20;;;;;;5053070;28;21491;-41
2021/01/16 04:08:54;;;;;;;18.17;12.80;;;7.40;53.10;;;;;;5049777;28;20439;-41
2021/01/16 04:11:20;;;;;;;21.33;13.27;;;7.50;53.10;;;;;;5050414;28;20513;-41
2021/01/16 04:13:46;;;;;;;18.77;13.00;;;7.40;53.00;;;;;;5065014;28;20195;-41
2021/01/16 04:16:12;;;;;;;23.37;14.40;;;7.40;53.00;;;;;;5048453;28;20218;-41
2021/01/16 04:18:37;;;;;;;22.20;13.93;;;7.40;53.10;;;;;;5048177;28;20439;-41
2021/01/16 04:21:04;;;;;;;18.23;12.27;;;7.40;53.10;;;;;;5045581;28;20196;-41
2021/01/16 04:23:29;;;;;;;19.10;13.57;;;7.40;53.30;;;;;;5053676;28;20195;-41
2021/01/16 04:25:55;;;;;;;21.40;12.97;;;7.40;53.20;;;;;;5048086;28;20475;-41
2021/01/16 04:28:21;;;;;;;17.73;12.80;;;7.40;53.30;;;;;;5061771;28;20184;-41
2021/01/16 04:30:47;;;;;;;19.70;12.90;;;7.40;53.20;;;;;;5049125;28;20821;-41
2021/01/16 04:33:13;;;;;;;18.87;12.93;;;7.40;53.30;;;;;;5047929;28;20256;-41
2021/01/16 04:35:39;;;;;;;21.33;13.77;;;7.40;53.40;;;;;;5048951;28;20215;-41
2021/01/16 04:38:04;;;;;;;18.60;12.90;;;7.30;53.40;;;;;;5047734;28;20500;-41
2021/01/16 04:40:31;;;;;;;22.43;13.03;;;7.30;53.40;;;;;;5061443;28;20925;-41
2021/01/16 04:42:58;;;;;;;18.97;13.70;;;7.30;53.40;;;;;;5047628;28;20200;-41
2021/01/16 04:45:24;;;;;;;19.10;13.53;;;7.30;53.30;;;;;;5043233;28;20586;-42
2021/01/16 04:47:50;;;;;;;19.30;13.37;;;7.30;53.30;;;;;;5045240;28;20450;-41
2021/01/16 04:50:17;;;;;;;20.83;13.37;;;7.30;53.10;;;;;;5062550;28;20426;-41
2021/01/16 04:52:44;;;;;;;21.47;13.03;;;7.30;53.10;;;;;;5052124;28;20189;-41
2021/01/16 04:55:14;;;;;;;21.30;13.10;;;7.30;53.10;;;;;;5049600;28;20435;-41
2021/01/16 04:57:41;;;;;;;19.43;13.53;;;7.30;53.10;;;;;;5048492;28;20435;-41
2021/01/16 05:00:12;;;;;;;20.20;13.80;;;7.40;53.10;;;;;;5044230;28;20489;-42
2021/01/16 05:02:40;;;;;;;18.90;12.30;;;7.20;53.10;;;;;;5044067;28;20505;-41
2021/01/16 05:05:10;;;;;;;21.70;13.90;;;7.10;53.20;;;;;;5053887;28;20486;-41
2021/01/16 05:07:37;;;;;;;21.97;13.70;;;7.10;53.40;;;;;;5049021;28;20500;-42
2021/01/16 05:10:09;;;;;;;21.43;13.73;;;7.20;53.30;;;;;;5048196;28;20442;-41
2021/01/16 05:12:55;;;;;;;19.30;13.50;;;7.10;53.30;;;;;;5045854;28;20438;-41
2021/01/16 05:15:22;;;;;;;23.67;13.93;;;7.20;53.40;;;;;;5046132;28;20508;-42
2021/01/16 05:18:08;;;;;;;22.77;14.10;;;7.20;53.10;;;;;;5057330;28;20422;-41
2021/01/16 05:20:35;;;;;;;20.50;12.83;;;7.20;53.10;;;;;;5053702;28;20445;-41
2021/01/16 05:23:16;;;;;;;21.13;14.07;;;7.20;53.00;;;;;;5044759;28;20522;-41
2021/01/16 05:25:52;;;;;;;20.90;14.10;;;7.30;52.90;;;;;;5046765;28;20486;-41
2021/01/16 05:28:23;;;;;;;20.30;14.33;;;7.30;53.00;;;;;;5060734;28;20538;-41
2021/01/16 05:31:04;;;;;;;22.97;13.40;;;7.20;52.90;;;;;;5048098;28;20802;-41
2021/01/16 05:33:35;;;;;;;22.30;14.60;;;7.20;52.90;;;;;;5044080;28;20922;-41
2021/01/16 05:36:03;;;;;;;22.53;14.53;;;7.20;53.10;;;;;;5040775;28;20464;-41
2021/01/16 05:38:34;;;;;;;18.33;12.73;;;7.10;53.20;;;;;;5053792;28;20443;-41
2021/01/16 05:41:06;;;;;;;20.17;13.93;;;7.10;53.20;;;;;;5054529;28;20478;-41
2021/01/16 05:43:34;;;;;;;19.87;14.13;;;7.20;53.00;;;;;;5050966;28;20525;-41
2021/01/16 05:46:02;;;;;;;20.03;13.00;;;7.20;52.80;;;;;;5054023;28;20535;-41
2021/01/16 05:48:30;;;;;;;17.97;12.37;;;7.20;52.80;;;;;;5052962;28;20443;-42
2021/01/16 05:50:57;;;;;;;21.13;13.30;;;7.10;52.80;;;;;;5051755;28;20761;-42
2021/01/16 05:53:25;;;;;;;25.00;16.20;;;7.10;53.00;;;;;;5049198;28;21087;-41
2021/01/16 05:55:50;;;;;;;24.50;14.10;;;7.10;52.80;;;;;;5051241;28;20442;-41
2021/01/16 05:58:18;;;;;;;21.63;13.33;;;7.00;52.90;;;;;;5055288;28;20465;-41
2021/01/16 06:00:48;;;;;;;16.70;12.53;;;7.00;53.10;;;;;;5048711;28;20526;-41
2021/01/16 06:03:16;;;;;;;19.00;13.23;;;7.10;53.00;;;;;;5055813;28;20446;-41
2021/01/16 06:05:52;;;;;;;19.13;12.67;;;7.10;52.90;;;;;;5060047;28;20506;-41
2021/01/16 06:08:21;;;;;;;20.40;12.73;;;7.10;52.80;;;;;;5049835;28;20439;-41
2021/01/16 06:10:55;;;;;;;22.73;14.13;;;7.10;53.10;;;;;;5046659;28;20435;-41
2021/01/16 06:13:24;;;;;;;21.00;13.63;;;7.10;53.00;;;;;;5044366;28;20466;-41
2021/01/16 06:15:54;;;;;;;21.53;14.60;;;7.10;52.90;;;;;;5046894;28;20599;-41
2021/01/16 06:18:28;;;;;;;22.87;14.73;;;7.10;52.90;;;;;;5042943;28;20488;-41
2021/01/16 06:20:55;;;;;;;20.90;13.70;;;7.20;52.90;;;;;;5044810;28;20455;-41
2021/01/16 06:23:22;;;;;;;19.50;13.53;;;7.20;52.70;;;;;;5050107;28;20612;-42
2021/01/16 06:25:56;;;;;;;19.70;14.13;;;7.30;53.30;;;;;;5056867;28;20487;-42
2021/01/16 06:28:24;;;;;;;19.20;13.67;;;7.50;54.10;;;;;;5052367;28;20489;-42
2021/01/16 06:30:55;;;;;;;20.20;14.20;;;7.80;53.90;;;;;;5050453;28;20451;-42
2021/01/16 06:33:30;;;;;;;20.70;14.13;;;8.10;53.30;;;;;;5048200;28;20549;-42
2021/01/16 06:35:59;;;;;;;20.33;13.10;;;8.40;52.80;;;;;;5051224;28;20445;-42
2021/01/16 06:38:29;;;;;;;16.73;12.40;;;8.60;51.80;;;;;;5055664;28;20777;-42
2021/01/16 06:40:55;;;;;;;22.50;14.77;;;8.80;51.30;;;;;;5046188;28;20825;-42
2021/01/16 06:43:24;;;;;;;21.33;13.93;;;9.00;51.00;;;;;;5054957;28;20434;-42
2021/01/16 06:45:49;;;;;;;19.20;13.70;;;9.10;50.20;;;;;;5056574;28;20261;-42
2021/01/16 06:48:15;;;;;;;19.63;14.07;;;9.10;49.50;;;;;;5048146;28;20562;-42
2021/01/16 06:50:41;;;;;;;22.47;13.77;;;9.10;49.30;;;;;;5052700;28;20632;-42
2021/01/16 06:53:29;;;;;;;19.13;14.27;;;9.10;49.40;;;;;;5052364;28;20246;-42
2021/01/16 06:56:06;;;;;;;23.17;14.40;;;9.10;48.80;;;;;;5060996;28;20192;-42
2021/01/16 06:58:41;;;;;;;21.10;14.50;;;9.10;48.50;;;;;;5051067;28;20439;-42
2021/01/16 07:01:08;;;;;;;19.03;13.20;;;9.10;48.80;;;;;;5057733;28;20460;-42
2021/01/16 07:03:43;;;;;;;28.20;23.27;;;9.20;48.80;;;;;;5049290;28;20431;-42
2021/01/16 07:06:09;;;;;;;24.00;17.87;;;9.20;48.80;;;;;;5058008;28;20520;-42
2021/01/16 07:08:38;;;;;;;21.43;14.67;;;9.20;48.30;;;;;;5064089;28;20435;-42
2021/01/16 07:11:05;;;;;;;18.37;13.70;;;9.20;48.00;;;;;;5062133;28;20785;-42
2021/01/16 07:13:32;;;;;;;19.60;13.90;;;9.20;48.00;;;;;;5053179;28;20436;-42
2021/01/16 07:15:59;;;;;;;16.43;11.80;;;9.20;48.00;;;;;;5056663;28;20431;-42
2021/01/16 07:18:26;;;;;;;22.40;14.03;;;9.10;48.10;;;;;;5055367;28;20438;-42
2021/01/16 07:20:57;;;;;;;22.80;15.10;;;9.10;48.50;;;;;;5055557;28;20430;-42
2021/01/16 07:23:23;;;;;;;22.63;15.47;;;9.20;48.20;;;;;;5059620;28;20434;-42
2021/01/16 07:25:52;;;;;;;26.23;19.50;;;9.10;48.10;;;;;;5050153;28;20482;-42
2021/01/16 07:28:23;;;;;;;20.33;14.67;;;9.10;48.50;;;;;;5055606;28;20473;-42
2021/01/16 07:30:50;;;;;;;23.73;15.80;;;9.10;48.40;;;;;;5057235;28;20797;-42
2021/01/16 07:33:16;;;;;;;20.00;13.43;;;9.20;48.30;;;;;;5052877;28;20426;-42
2021/01/16 07:35:51;;;;;;;49.80;30.37;;;9.20;48.10;;;;;;5056408;28;20799;-42
2021/01/16 07:38:20;;;;;;;96.53;48.90;;;9.10;48.10;;;;;;5037350;28;20430;-42
2021/01/16 07:40:47;;;;;;;56.33;33.30;;;9.00;48.30;;;;;;5055409;28;20481;-42
2021/01/16 07:43:24;;;;;;;199.50;100.50;;;9.10;48.50;;;;;;5049460;28;20427;-42
2021/01/16 07:45:57;;;;;;;49.73;30.93;;;9.20;48.40;;;;;;5065082;28;20828;-42
2021/01/16 07:48:30;;;;;;;32.70;20.00;;;9.20;48.20;;;;;;5048782;28;20462;-42
2021/01/16 07:50:56;;;;;;;27.47;18.97;;;9.30;48.00;;;;;;5044122;28;20476;-42
2021/01/16 07:53:30;;;;;;;84.83;50.00;;;9.30;47.90;;;;;;5049063;28;20422;-42
2021/01/16 07:56:21;;;;;;;30.20;18.07;;;9.30;47.90;;;;;;5051920;28;20423;-42
2021/01/16 07:59:15;;;;;;;21.33;14.67;;;9.30;47.90;;;;;;5059781;28;20435;-42
2021/01/16 08:02:18;;;;;;;21.67;14.10;;;9.30;48.10;;;;;;5055147;28;20950;-42
2021/01/16 08:05:09;;;;;;;22.07;13.30;;;9.30;48.10;;;;;;5051056;28;20823;-43
2021/01/16 08:08:09;;;;;;;22.83;14.87;;;9.20;48.00;;;;;;5055293;28;20434;-42
2021/01/16 08:10:36;;;;;;;21.87;15.73;;;9.10;48.00;;;;;;5056953;28;20426;-41
2021/01/16 08:13:08;;;;;;;19.30;14.60;;;8.90;48.40;;;;;;5050687;28;21004;-41
2021/01/16 08:15:40;;;;;;;21.07;14.60;;;8.80;48.90;;;;;;5054714;28;20450;-41
2021/01/16 08:18:09;;;;;;;19.33;13.93;;;8.50;49.30;;;;;;5053417;28;20442;-42
2021/01/16 08:20:39;;;;;;;19.70;14.70;;;8.40;52.00;;;;;;5058344;28;20429;-42
2021/01/16 08:23:06;;;;;;;21.10;15.70;;;8.60;51.50;;;;;;5055376;28;20431;-42
2021/01/16 08:25:33;;;;;;;23.97;15.83;;;8.90;51.50;;;;;;5053976;28;20561;-42
2021/01/16 08:28:04;;;;;;;20.13;14.77;;;9.10;50.50;;;;;;5059146;28;20435;-42
2021/01/16 08:30:32;;;;;;;20.37;14.70;;;9.20;49.60;;;;;;5064102;28;20467;-42
2021/01/16 08:33:05;;;;;;;19.00;13.73;;;9.20;49.20;;;;;;5061113;28;20452;-42
2021/01/16 08:35:41;;;;;;;23.83;15.23;;;9.10;49.10;;;;;;5053213;28;20473;-42
2021/01/16 08:38:26;;;;;;;19.70;13.80;;;9.10;49.40;;;;;;5055639;28;20439;-42
2021/01/16 08:40:54;;;;;;;21.37;14.73;;;9.10;49.40;;;;;;5056162;28;20986;-42
2021/01/16 08:43:40;;;;;;;22.40;15.60;;;9.10;49.20;;;;;;5048198;28;20919;-42
2021/01/16 08:46:15;;;;;;;21.17;14.60;;;8.90;49.70;;;;;;5048849;28;20475;-42
2021/01/16 08:48:55;;;;;;;22.10;15.37;;;8.80;50.60;;;;;;5039022;28;20844;-45
2021/01/16 08:51:30;;;;;;;24.33;15.87;;;8.60;50.50;;;;;;5148201;22;21495;-42
2021/01/16 08:54:11;;;;;;;17.90;13.80;;;8.50;51.20;;;;;;5024886;28;20474;-42
2021/01/16 08:56:38;;;;;;;18.87;13.60;;;8.50;51.20;;;;;;5017747;28;20448;-41
2021/01/16 08:59:31;;;;;;;20.20;14.87;;;8.50;51.30;;;;;;5025406;28;20476;-41
2021/01/16 09:02:08;;;;;;;19.60;13.60;;;8.30;51.50;;;;;;5026663;28;20962;-42
2021/01/16 09:04:44;;;;;;;21.37;14.23;;;8.30;51.70;;;;;;5017464;28;20485;-41
2021/01/16 09:07:21;;;;;;;18.57;13.47;;;8.30;51.70;;;;;;5024638;28;20471;-41
2021/01/16 09:09:56;;;;;;;19.90;13.27;;;8.30;51.80;;;;;;5027602;28;20448;-42
2021/01/16 09:12:38;;;;;;;19.30;14.43;;;8.20;51.90;;;;;;5024341;28;20471;-44
2021/01/16 09:15:27;;;;;;;20.83;13.90;;;8.10;52.10;;;;;;5030928;28;20447;-42
2021/01/16 09:18:12;;;;;;;18.07;12.90;;;8.10;52.30;;;;;;5030652;28;20451;-42
2021/01/16 09:20:40;;;;;;;20.73;14.80;;;8.10;52.20;;;;;;5026119;28;20534;-42
2021/01/16 09:23:32;;;;;;;17.53;14.27;;;8.10;52.10;;;;;;5019856;28;20441;-42
2021/01/16 09:25:57;;;;;;;21.63;14.90;;;7.90;52.30;;;;;;5029059;28;20495;-42
2021/01/16 09:28:45;;;;;;;18.40;13.40;;;7.90;52.60;;;;;;5030264;28;20953;-42
2021/01/16 09:31:31;;;;;;;22.90;14.90;;;7.90;52.70;;;;;;5033304;28;20200;-42
2021/01/16 09:34:17;;;;;;;21.73;15.63;;;7.90;52.70;;;;;;5027121;28;20447;-42
2021/01/16 09:36:56;;;;;;;19.90;14.63;;;7.90;53.00;;;;;;5028195;28;20456;-42
2021/01/16 09:39:27;;;;;;;23.87;16.53;;;7.70;53.30;;;;;;5029103;28;21034;-42
2021/01/16 09:42:02;;;;;;;21.30;15.17;;;7.60;53.40;;;;;;5026587;28;20502;-42
2021/01/16 09:44:42;;;;;;;22.13;14.93;;;7.50;53.30;;;;;;5025821;28;20435;-42
2021/01/16 09:47:26;;;;;;;25.10;16.20;;;7.40;53.90;;;;;;5026590;28;20442;-42
2021/01/16 09:50:06;;;;;;;22.50;16.00;;;7.40;54.10;;;;;;5024694;28;20476;-42
2021/01/16 09:52:32;;;;;;;22.37;15.27;;;7.40;54.20;;;;;;5022391;28;20472;-42
2021/01/16 09:54:58;;;;;;;20.00;14.20;;;7.40;54.30;;;;;;5030153;28;20519;-42
2021/01/16 09:57:42;;;;;;;25.50;14.30;;;7.60;54.20;;;;;;5022252;28;20201;-42
2021/01/16 10:00:46;;;;;;;20.80;14.17;;;7.50;54.00;;;;;;5022974;28;20451;-42
2021/01/16 10:03:14;;;;;;;22.57;15.50;;;7.60;54.00;;;;;;5002791;28;20951;-42
2021/01/16 10:05:42;;;;;;;18.97;13.87;;;7.80;53.60;;;;;;5026290;28;20573;-42
2021/01/16 10:08:09;;;;;;;22.97;16.00;;;7.90;53.20;;;;;;5020395;28;20481;-42
2021/01/16 10:10:46;;;;;;;22.17;15.10;;;7.80;53.30;;;;;;5023450;28;20480;-42
2021/01/16 10:13:13;;;;;;;23.03;16.67;;;7.90;53.50;;;;;;5020228;28;20433;-42
2021/01/16 10:15:50;;;;;;;20.33;14.90;;;7.90;53.20;;;;;;5027992;28;20941;-42
2021/01/16 10:18:18;;;;;;;22.97;15.73;;;7.90;53.10;;;;;;5019047;28;20424;-42
2021/01/16 10:20:57;;;;;;;22.37;15.70;;;7.90;53.30;;;;;;5018776;28;20443;-42
2021/01/16 10:23:27;;;;;;;21.30;14.37;;;8.00;53.40;;;;;;5018102;28;20433;-42
2021/01/16 10:25:59;;;;;;;20.20;13.67;;;8.00;53.00;;;;;;5023762;28;20483;-42
2021/01/16 10:28:27;;;;;;;19.20;12.93;;;7.60;52.60;;;;;;5018222;28;20444;-42
2021/01/16 10:31:07;;;;;;;17.70;12.57;;;7.50;52.90;;;;;;5021328;28;20444;-42
2021/01/16 10:33:44;;;;;;;17.10;13.60;;;7.50;52.60;;;;;;5020585;28;20459;-42
2021/01/16 10:36:16;;;;;;;19.97;12.43;;;7.30;52.60;;;;;;5025265;28;20803;-42
2021/01/16 10:38:49;;;;;;;18.70;13.10;;;7.40;52.80;;;;;;5025114;28;20471;-42
2021/01/16 10:41:20;;;;;;;19.83;13.87;;;7.40;52.90;;;;;;5017722;28;20436;-42
2021/01/16 10:43:47;;;;;;;20.30;13.90;;;7.40;52.80;;;;;;5020420;28;20446;-42
2021/01/16 10:46:32;;;;;;;17.73;12.93;;;7.60;52.70;;;;;;5029304;28;20486;-42
2021/01/16 10:49:20;;;;;;;17.70;11.30;;;7.50;52.50;;;;;;5023038;28;20456;-42
2021/01/16 10:52:02;;;;;;;19.30;13.13;;;7.50;51.80;;;;;;5022153;28;20538;-42
2021/01/16 10:54:29;;;;;;;18.97;12.27;;;7.50;51.80;;;;;;5024808;28;20456;-41
2021/01/16 10:57:06;;;;;;;20.07;12.97;;;7.50;51.80;;;;;;5029176;28;20541;-42
2021/01/16 10:59:33;;;;;;;17.70;11.97;;;7.50;51.50;;;;;;5028951;28;20478;-41
2021/01/16 11:02:10;;;;;;;17.17;11.80;;;7.50;51.30;;;;;;5030295;28;20448;-41
2021/01/16 11:04:48;;;;;;;20.63;14.13;;;7.60;51.50;;;;;;5028166;28;20471;-41
2021/01/16 11:07:27;;;;;;;17.50;12.83;;;7.60;51.50;;;;;;5027132;28;21874;-42
2021/01/16 11:10:05;;;;;;;16.83;12.00;;;7.50;51.30;;;;;;5023722;28;20456;-42
2021/01/16 11:12:32;;;;;;;16.67;11.73;;;7.40;51.70;;;;;;5025405;28;20462;-42
2021/01/16 11:14:59;;;;;;;16.20;11.80;;;7.40;51.70;;;;;;5026824;28;20847;-42
2021/01/16 11:17:47;;;;;;;13.20;10.83;;;7.30;51.90;;;;;;5023270;28;20468;-43
2021/01/16 11:20:22;;;;;;;15.07;10.97;;;7.30;52.30;;;;;;5022815;28;20472;-42
2021/01/16 11:23:21;;;;;;;16.17;11.67;;;7.30;52.40;;;;;;5023021;28;20502;-42
2021/01/16 11:25:47;;;;;;;16.57;11.73;;;7.20;52.20;;;;;;5030052;28;20586;-42
2021/01/16 11:28:20;;;;;;;20.53;11.80;;;7.10;52.20;;;;;;5027948;28;20509;-42
2021/01/16 11:30:48;;;;;;;17.47;11.60;;;7.20;52.00;;;;;;5029770;28;20440;-42
2021/01/16 11:33:26;;;;;;;17.60;12.30;;;7.20;51.70;;;;;;5029447;28;20439;-42
2021/01/16 11:36:01;;;;;;;15.23;12.03;;;7.20;52.00;;;;;;5024922;28;20824;-41
2021/01/16 11:38:39;;;;;;;13.40;10.40;;;7.40;52.00;;;;;;5029282;28;20431;-42
2021/01/16 11:41:05;;;;;;;18.37;13.07;;;7.50;51.60;;;;;;5029409;28;20448;-42
2021/01/16 11:43:31;;;;;;;18.23;11.70;;;7.60;51.50;;;;;;5029372;28;20435;-41
2021/01/16 11:46:12;;;;;;;18.97;11.60;;;7.50;51.20;;;;;;5028452;28;20840;-41
2021/01/16 11:48:39;;;;;;;16.90;11.23;;;7.60;51.20;;;;;;5023532;28;20523;-42
2021/01/16 11:51:19;;;;;;;18.30;11.27;;;7.70;51.50;;;;;;5030564;28;20447;-41
2021/01/16 11:53:50;;;;;;;17.00;12.20;;;7.60;50.70;;;;;;5028927;28;20491;-41
2021/01/16 11:56:20;;;;;;;17.47;12.70;;;7.40;50.80;;;;;;5030334;28;20440;-42
2021/01/16 11:58:48;;;;;;;17.57;11.50;;;7.40;51.30;;;;;;5025937;28;20495;-41
2021/01/16 12:01:15;;;;;;;16.47;12.30;;;7.40;51.60;;;;;;5024669;28;20455;-41
2021/01/16 12:03:44;;;;;;;18.43;11.97;;;7.40;51.40;;;;;;5025123;28;20511;-41
2021/01/16 12:06:15;;;;;;;17.20;11.43;;;7.40;50.80;;;;;;5022460;28;20554;-41
2021/01/16 12:08:44;;;;;;;17.83;13.27;;;7.30;51.50;;;;;;5024840;28;20497;-41
2021/01/16 12:11:10;;;;;;;20.03;14.07;;;7.20;50.90;;;;;;5017320;28;20445;-41
2021/01/16 12:13:38;;;;;;;16.20;12.33;;;7.20;51.40;;;;;;5028974;28;20464;-41
2021/01/16 12:16:04;;;;;;;18.13;12.80;;;7.20;52.50;;;;;;5030636;28;20865;-41
2021/01/16 12:18:36;;;;;;;15.77;13.03;;;7.30;52.30;;;;;;5029390;28;20514;-41
2021/01/16 12:21:02;;;;;;;16.53;11.97;;;7.40;51.90;;;;;;5023457;28;20197;-41
2021/01/16 12:23:38;;;;;;;17.30;12.70;;;7.50;51.20;;;;;;5017552;28;20428;-41
2021/01/16 12:26:08;;;;;;;16.83;13.03;;;7.50;51.60;;;;;;5017419;28;20542;-41
2021/01/16 12:28:37;;;;;;;17.70;13.03;;;7.60;51.50;;;;;;5018365;28;20532;-41
2021/01/16 12:31:04;;;;;;;18.50;13.80;;;7.60;51.20;;;;;;5029302;28;20475;-42
2021/01/16 12:33:33;;;;;;;19.90;12.70;;;7.60;51.20;;;;;;5024650;28;20543;-41
2021/01/16 12:36:08;;;;;;;18.43;13.80;;;7.70;51.10;;;;;;5022025;28;20451;-41
2021/01/16 12:38:34;;;;;;;18.10;12.33;;;7.70;51.20;;;;;;5022415;28;20863;-41
2021/01/16 12:41:00;;;;;;;17.17;13.27;;;7.60;51.20;;;;;;5026341;28;20519;-41
2021/01/16 12:43:26;;;;;;;22.57;13.87;;;7.60;51.30;;;;;;5029868;28;20189;-42
2021/01/16 12:45:52;;;;;;;20.33;14.27;;;7.60;51.30;;;;;;5021111;28;20485;-41
2021/01/16 12:48:18;;;;;;;19.37;13.67;;;7.70;51.20;;;;;;5024281;28;20201;-41
2021/01/16 12:50:45;;;;;;;18.77;13.90;;;7.70;51.00;;;;;;5028932;28;20441;-42
2021/01/16 12:53:13;;;;;;;19.73;12.77;;;7.80;51.30;;;;;;5030362;28;20460;-42
2021/01/16 12:55:39;;;;;;;17.50;13.23;;;7.90;52.90;;;;;;5027697;28;20445;-42